createdAt,value
2022-11-30T00:01:29.433Z,18.52
2022-11-30T00:04:31.463Z,18.51
2022-11-30T00:07:34.186Z,18.49
2022-11-30T00:10:37.664Z,18.49
2022-11-30T00:13:40.544Z,18.49
2022-11-30T00:16:42.681Z,18.50
2022-11-30T00:19:45.016Z,18.48
2022-11-30T00:22:47.032Z,18.46
2022-11-30T00:25:49.051Z,18.46
2022-11-30T00:28:51.228Z,18.44
2022-11-30T00:31:53.610Z,18.43
2022-11-30T00:34:55.964Z,18.43
2022-11-30T00:37:58.068Z,18.42
2022-11-30T00:41:01.410Z,18.40
2022-11-30T00:44:03.447Z,18.40
2022-11-30T00:47:05.550Z,18.40
2022-11-30T00:50:08.134Z,18.40
2022-11-30T00:53:10.188Z,18.39
2022-11-30T00:56:12.249Z,18.40
2022-11-30T00:59:14.272Z,18.38
2022-11-30T01:02:16.336Z,18.38
2022-11-30T01:05:18.348Z,18.37
2022-11-30T01:08:20.453Z,18.36
2022-11-30T01:11:25.617Z,18.35
2022-11-30T01:14:27.714Z,18.34
2022-11-30T01:17:29.819Z,18.34
2022-11-30T01:20:31.890Z,18.34
2022-11-30T01:23:33.924Z,18.30
2022-11-30T01:26:36.285Z,18.30
2022-11-30T01:29:38.313Z,18.34
2022-11-30T01:32:40.385Z,18.32
2022-11-30T01:35:42.398Z,18.28
2022-11-30T01:38:53.122Z,18.29
2022-11-30T01:41:55.320Z,18.28
2022-11-30T01:44:58.966Z,18.26
2022-11-30T01:48:01.211Z,18.26
2022-11-30T01:51:03.493Z,18.25
2022-11-30T01:54:09.675Z,18.23
2022-11-30T01:57:33.990Z,18.24
2022-11-30T02:00:36.109Z,18.24
2022-11-30T02:04:09.910Z,18.26
2022-11-30T02:07:12.493Z,18.22
2022-11-30T02:10:22.225Z,18.22
2022-11-30T02:14:01.110Z,18.20
2022-11-30T02:17:47.099Z,18.20
2022-11-30T02:21:01.409Z,18.19
2022-11-30T02:24:21.452Z,18.18
2022-11-30T02:27:42.330Z,18.17
2022-11-30T02:30:48.591Z,18.15
2022-11-30T02:33:52.661Z,18.12
2022-11-30T02:36:57.095Z,18.13
2022-11-30T02:39:59.115Z,18.12
2022-11-30T02:43:04.654Z,18.11
2022-11-30T02:46:20.261Z,18.10
2022-11-30T02:49:43.816Z,18.09
2022-11-30T02:52:46.474Z,18.08
2022-11-30T02:55:48.495Z,18.08
2022-11-30T02:58:51.754Z,18.08
2022-11-30T03:01:53.838Z,18.05
2022-11-30T03:04:55.936Z,18.06
2022-11-30T03:07:58.073Z,18.05
2022-11-30T03:11:04.744Z,18.04
2022-11-30T03:14:06.773Z,18.04
2022-11-30T03:17:08.827Z,18.04
2022-11-30T03:20:11.062Z,18.04
2022-11-30T03:23:13.059Z,18.02
2022-11-30T03:26:15.065Z,18.02
2022-11-30T03:29:17.428Z,17.99
2022-11-30T03:32:19.630Z,17.99
2022-11-30T03:35:21.674Z,17.99
2022-11-30T03:38:23.674Z,17.99
2022-11-30T03:41:25.727Z,17.98
2022-11-30T03:44:27.775Z,17.96
2022-11-30T03:47:29.932Z,17.96
2022-11-30T03:50:31.945Z,17.95
2022-11-30T03:53:34.337Z,17.95
2022-11-30T03:56:36.355Z,17.93
2022-11-30T03:59:38.386Z,17.91
2022-11-30T04:02:44.672Z,17.90
2022-11-30T04:05:47.549Z,17.93
2022-11-30T04:08:49.703Z,17.95
2022-11-30T04:11:51.713Z,17.95
2022-11-30T04:14:53.771Z,17.99
2022-11-30T04:17:55.826Z,18.08
2022-11-30T04:20:59.890Z,18.20
2022-11-30T04:24:01.906Z,18.30
2022-11-30T04:27:04.112Z,18.36
2022-11-30T04:30:08.046Z,18.39
2022-11-30T04:33:10.291Z,18.49
2022-11-30T04:36:19.421Z,18.56
2022-11-30T04:39:21.486Z,18.59
2022-11-30T04:42:23.506Z,18.62
2022-11-30T04:45:25.609Z,18.62
2022-11-30T04:48:27.591Z,18.62
2022-11-30T04:51:29.589Z,18.63
2022-11-30T04:54:31.581Z,18.69
2022-11-30T04:57:33.594Z,18.74
2022-11-30T05:00:36.573Z,18.78
2022-11-30T05:03:38.578Z,18.78
2022-11-30T05:06:40.583Z,18.78
2022-11-30T05:09:42.600Z,18.74
2022-11-30T05:12:44.989Z,18.74
2022-11-30T05:15:47.231Z,18.76
2022-11-30T05:18:49.325Z,18.78
2022-11-30T05:21:51.327Z,18.81
2022-11-30T05:24:53.699Z,18.84
2022-11-30T05:27:55.714Z,18.87
2022-11-30T05:31:03.726Z,18.89
2022-11-30T05:34:05.847Z,18.97
2022-11-30T05:37:07.901Z,19.03
2022-11-30T05:40:10.340Z,19.08
2022-11-30T05:43:12.750Z,19.06
2022-11-30T05:46:14.890Z,19.01
2022-11-30T05:49:16.997Z,19.02
2022-11-30T05:52:19.146Z,19.08
2022-11-30T05:55:21.161Z,19.12
2022-11-30T05:58:23.351Z,19.18
2022-11-30T06:01:27.912Z,19.21
2022-11-30T06:04:29.977Z,19.21
2022-11-30T06:07:32.124Z,19.18
2022-11-30T06:10:34.134Z,19.15
2022-11-30T06:13:36.199Z,19.10
2022-11-30T06:16:39.879Z,19.14
2022-11-30T06:19:42.127Z,19.18
2022-11-30T06:22:47.570Z,19.23
2022-11-30T06:25:49.554Z,19.22
2022-11-30T06:28:51.648Z,19.25
2022-11-30T06:31:53.770Z,19.21
2022-11-30T06:34:55.888Z,19.20
2022-11-30T06:38:00.393Z,19.16
2022-11-30T06:41:07.582Z,19.11
2022-11-30T06:44:10.850Z,19.10
2022-11-30T06:47:12.924Z,19.06
2022-11-30T06:50:15.097Z,19.09
2022-11-30T06:53:17.265Z,19.12
2022-11-30T06:56:19.370Z,19.17
2022-11-30T06:59:21.467Z,19.24
2022-11-30T07:02:23.647Z,19.29
2022-11-30T07:05:25.790Z,19.42
2022-11-30T07:08:27.891Z,19.46
2022-11-30T07:11:29.954Z,19.51
2022-11-30T07:14:32.007Z,19.54
2022-11-30T07:17:34.084Z,19.58
2022-11-30T07:20:37.281Z,19.55
2022-11-30T07:23:58.042Z,19.57
2022-11-30T07:27:01.639Z,19.56
2022-11-30T07:30:04.497Z,19.60
2022-11-30T07:33:06.514Z,19.63
2022-11-30T07:36:09.591Z,19.69
2022-11-30T07:39:12.198Z,19.71
2022-11-30T07:42:14.243Z,19.74
2022-11-30T07:45:16.282Z,19.76
2022-11-30T07:48:18.692Z,19.76
2022-11-30T07:51:22.302Z,19.79
2022-11-30T07:54:24.401Z,19.74
2022-11-30T07:57:27.280Z,19.79
2022-11-30T08:00:29.286Z,19.81
2022-11-30T08:03:36.625Z,19.82
2022-11-30T08:06:39.182Z,19.83
2022-11-30T08:09:41.247Z,19.88
2022-11-30T08:12:43.406Z,19.95
2022-11-30T08:15:45.435Z,19.98
2022-11-30T08:18:48.008Z,20.02
2022-11-30T08:21:50.033Z,20.00
2022-11-30T08:24:52.166Z,20.04
2022-11-30T08:27:54.202Z,20.01
2022-11-30T08:31:01.278Z,20.01
2022-11-30T08:34:10.581Z,20.03
2022-11-30T08:37:12.626Z,20.03
2022-11-30T08:40:14.753Z,19.94
2022-11-30T08:43:16.769Z,19.88
2022-11-30T08:46:49.675Z,19.91
2022-11-30T08:49:42.944Z,19.94
2022-11-30T08:52:44.965Z,19.90
2022-11-30T08:56:04.298Z,19.90
2022-11-30T08:59:06.364Z,19.86
2022-11-30T09:02:10.928Z,19.84
2022-11-30T09:05:13.728Z,19.86
2022-11-30T09:08:16.307Z,19.86
2022-11-30T09:11:21.791Z,19.85
2022-11-30T09:14:23.811Z,19.83
2022-11-30T09:17:26.111Z,19.82
2022-11-30T09:20:28.143Z,19.82
2022-11-30T09:23:30.831Z,19.80
2022-11-30T09:26:32.981Z,19.77
2022-11-30T09:29:36.339Z,19.75
2022-11-30T09:32:38.340Z,19.75
2022-11-30T09:35:40.330Z,19.74
2022-11-30T09:38:42.658Z,19.71
2022-11-30T09:42:25.807Z,19.71
2022-11-30T09:45:32.976Z,19.69
2022-11-30T09:48:46.773Z,19.67
2022-11-30T09:51:51.903Z,19.68
2022-11-30T09:54:55.506Z,19.68
2022-11-30T09:58:04.821Z,19.67
2022-11-30T10:01:16.994Z,19.67
2022-11-30T10:04:29.829Z,19.65
2022-11-30T10:07:53.397Z,19.61
2022-11-30T10:11:01.684Z,19.60
2022-11-30T10:14:23.237Z,19.58
2022-11-30T10:17:28.246Z,19.59
2022-11-30T10:20:49.966Z,19.58
2022-11-30T10:24:15.021Z,19.59
2022-11-30T10:27:31.959Z,19.55
2022-11-30T10:30:36.199Z,19.54
2022-11-30T10:33:50.797Z,19.54
2022-11-30T10:37:01.181Z,19.53
2022-11-30T10:40:16.793Z,19.55
2022-11-30T10:43:37.899Z,19.55
2022-11-30T10:46:45.241Z,19.58
2022-11-30T10:49:50.653Z,19.56
2022-11-30T10:52:56.158Z,19.55
2022-11-30T10:56:12.075Z,19.58
2022-11-30T10:59:27.777Z,19.58
2022-11-30T11:02:45.850Z,19.56
2022-11-30T11:06:01.925Z,19.55
2022-11-30T11:09:32.107Z,19.56
2022-11-30T11:12:34.329Z,19.55
2022-11-30T11:15:36.579Z,19.60
2022-11-30T11:18:56.219Z,19.59
2022-11-30T11:21:58.349Z,19.58
2022-11-30T11:25:11.957Z,19.59
2022-11-30T11:28:17.150Z,19.56
2022-11-30T11:31:37.110Z,19.58
2022-11-30T11:34:39.232Z,19.57
2022-11-30T11:37:52.157Z,19.58
2022-11-30T11:41:07.194Z,19.60
2022-11-30T11:44:12.353Z,19.60
2022-11-30T11:47:26.421Z,19.62
2022-11-30T11:54:22.210Z,19.62
2022-11-30T11:57:35.504Z,19.61
2022-11-30T12:00:38.264Z,19.66
2022-11-30T12:04:05.002Z,19.62
2022-11-30T12:07:32.067Z,19.63
2022-11-30T12:10:51.759Z,19.65
2022-11-30T12:13:54.595Z,19.62
2022-11-30T12:17:08.394Z,19.63
2022-11-30T12:20:30.137Z,19.62
2022-11-30T12:23:41.668Z,19.61
2022-11-30T12:26:52.235Z,19.58
2022-11-30T12:30:13.927Z,19.62
2022-11-30T12:33:39.023Z,19.58
2022-11-30T12:36:59.267Z,19.55
2022-11-30T12:40:01.280Z,19.53
2022-11-30T12:43:31.045Z,19.52
2022-11-30T12:46:33.284Z,19.50
2022-11-30T12:50:02.905Z,19.52
2022-11-30T12:53:20.319Z,19.53
2022-11-30T12:56:45.978Z,19.48
2022-11-30T13:00:10.719Z,19.53
2022-11-30T13:03:48.973Z,19.51
2022-11-30T13:06:58.301Z,19.48
2022-11-30T13:10:26.460Z,19.47
2022-11-30T13:13:33.991Z,19.48
2022-11-30T13:16:36.993Z,19.47
2022-11-30T13:19:48.072Z,19.48
2022-11-30T13:23:20.681Z,19.51
2022-11-30T13:26:39.182Z,19.54
2022-11-30T13:30:00.223Z,19.57
2022-11-30T13:33:39.674Z,19.57
2022-11-30T13:36:44.601Z,19.60
2022-11-30T13:39:56.023Z,19.60
2022-11-30T13:42:58.496Z,19.58
2022-11-30T13:46:06.431Z,19.55
2022-11-30T13:49:24.500Z,19.55
2022-11-30T13:52:57.435Z,19.53
2022-11-30T13:56:21.050Z,19.50
2022-11-30T13:59:23.181Z,19.50
2022-11-30T14:02:36.249Z,19.51
2022-11-30T14:05:41.093Z,19.52
2022-11-30T14:08:43.119Z,19.53
2022-11-30T14:11:45.817Z,19.55
2022-11-30T14:14:48.354Z,19.58
2022-11-30T14:17:54.100Z,19.62
2022-11-30T14:21:03.486Z,19.60
2022-11-30T14:24:21.583Z,19.59
2022-11-30T14:27:25.970Z,19.59
2022-11-30T14:30:31.358Z,19.58
2022-11-30T14:33:59.651Z,19.59
2022-11-30T14:37:25.992Z,19.59
2022-11-30T14:40:33.432Z,19.61
2022-11-30T14:43:35.443Z,19.58
2022-11-30T14:46:37.506Z,19.58
2022-11-30T14:49:47.199Z,19.57
2022-11-30T14:53:04.029Z,19.57
2022-11-30T14:56:23.021Z,19.55
2022-11-30T14:59:39.923Z,19.56
2022-11-30T15:02:44.318Z,19.56
2022-11-30T15:05:46.544Z,19.50
2022-11-30T15:08:54.893Z,19.53
2022-11-30T15:11:57.523Z,19.46
2022-11-30T15:15:20.446Z,19.51
2022-11-30T15:18:26.070Z,19.46
2022-11-30T15:21:32.275Z,19.45
2022-11-30T15:24:34.320Z,19.41
2022-11-30T15:27:36.334Z,19.43
2022-11-30T15:30:42.666Z,19.45
2022-11-30T15:33:47.377Z,19.44
2022-11-30T15:36:49.445Z,19.46
2022-11-30T15:39:56.541Z,19.47
2022-11-30T15:43:00.164Z,19.42
2022-11-30T15:46:02.292Z,19.47
2022-11-30T15:49:07.069Z,19.56
2022-11-30T15:52:11.577Z,19.55
2022-11-30T15:55:49.709Z,19.56
2022-11-30T15:59:07.674Z,19.59
2022-11-30T16:02:33.945Z,19.59
2022-11-30T16:05:37.375Z,19.58
2022-11-30T16:08:47.456Z,19.56
2022-11-30T16:11:53.751Z,19.54
2022-11-30T16:14:56.327Z,19.52
2022-11-30T16:18:22.675Z,19.55
2022-11-30T16:21:24.831Z,19.55
2022-11-30T16:24:27.152Z,19.57
2022-11-30T16:27:30.375Z,19.50
2022-11-30T16:30:32.436Z,19.44
2022-11-30T16:33:34.468Z,19.42
2022-11-30T16:36:38.603Z,19.44
2022-11-30T16:39:40.732Z,19.45
2022-11-30T16:42:43.141Z,19.38
2022-11-30T16:45:46.700Z,19.40
2022-11-30T16:48:49.023Z,19.39
2022-11-30T16:51:51.003Z,19.35
2022-11-30T16:54:52.986Z,19.32
2022-11-30T16:57:55.671Z,19.32
2022-11-30T17:01:00.073Z,19.35
2022-11-30T17:04:10.582Z,19.27
2022-11-30T17:07:12.592Z,19.26
2022-11-30T17:10:14.674Z,19.24
2022-11-30T17:13:17.909Z,19.24
2022-11-30T17:16:20.014Z,19.24
2022-11-30T17:19:22.894Z,19.22
2022-11-30T17:22:24.909Z,19.22
2022-11-30T17:25:27.135Z,19.22
2022-11-30T17:28:29.187Z,19.21
2022-11-30T17:31:31.459Z,19.20
2022-11-30T17:34:33.869Z,19.20
2022-11-30T17:37:36.318Z,19.18
2022-11-30T17:40:42.033Z,19.16
2022-11-30T17:43:44.430Z,19.15
2022-11-30T17:46:48.511Z,19.15
2022-11-30T17:49:51.044Z,19.13
2022-11-30T17:52:53.157Z,19.12
2022-11-30T17:56:05.470Z,19.12
2022-11-30T17:59:07.662Z,19.11
2022-11-30T18:02:11.909Z,19.11
2022-11-30T18:05:13.997Z,19.12
2022-11-30T18:08:16.647Z,19.11
2022-11-30T18:11:26.294Z,19.11
2022-11-30T18:14:28.299Z,19.10
2022-11-30T18:17:31.707Z,19.09
2022-11-30T18:20:33.801Z,19.07
2022-11-30T18:23:35.950Z,19.07
2022-11-30T18:26:38.974Z,19.09
2022-11-30T18:29:41.038Z,19.10
2022-11-30T18:32:43.042Z,19.08
2022-11-30T18:35:45.327Z,19.05
2022-11-30T18:38:47.398Z,19.03
2022-11-30T18:41:49.610Z,19.02
2022-11-30T18:44:51.671Z,19.02
2022-11-30T18:47:53.818Z,19.01
2022-11-30T18:50:55.820Z,19.01
2022-11-30T18:54:02.433Z,19.00
2022-11-30T18:57:04.804Z,18.98
2022-11-30T19:00:07.546Z,19.00
2022-11-30T19:03:09.610Z,18.99
2022-11-30T19:06:12.105Z,18.97
2022-11-30T19:09:17.317Z,18.96
2022-11-30T19:12:19.517Z,18.95
2022-11-30T19:15:21.520Z,18.95
2022-11-30T19:18:23.560Z,18.95
2022-11-30T19:21:26.955Z,18.96
2022-11-30T19:24:29.103Z,18.95
2022-11-30T19:27:31.086Z,18.94
2022-11-30T19:30:33.160Z,18.93
2022-11-30T19:33:37.056Z,18.92
2022-11-30T19:36:39.302Z,18.91
2022-11-30T19:39:41.325Z,18.92
2022-11-30T19:42:43.318Z,18.91
2022-11-30T19:45:45.445Z,18.89
2022-11-30T19:48:47.467Z,18.89
2022-11-30T19:51:49.586Z,18.89
2022-11-30T19:54:51.822Z,18.89
2022-11-30T19:57:53.825Z,18.89
2022-11-30T20:00:55.812Z,18.88
2022-11-30T20:03:59.037Z,18.88
2022-11-30T20:07:01.087Z,18.87
2022-11-30T20:10:03.426Z,18.86
2022-11-30T20:13:05.510Z,18.85
2022-11-30T20:16:12.618Z,18.85
2022-11-30T20:19:16.307Z,18.84
2022-11-30T20:22:18.342Z,18.83
2022-11-30T20:25:21.079Z,18.83
2022-11-30T20:28:23.070Z,18.83
2022-11-30T20:31:26.367Z,18.83
2022-11-30T20:34:32.800Z,18.82
2022-11-30T20:37:37.442Z,18.82
2022-11-30T20:40:39.882Z,18.81
2022-11-30T20:43:42.836Z,18.81
2022-11-30T20:46:45.024Z,18.80
2022-11-30T20:49:47.279Z,18.79
2022-11-30T20:52:49.345Z,18.79
2022-11-30T20:55:51.363Z,18.79
2022-11-30T20:58:53.459Z,18.79
2022-11-30T21:01:56.515Z,18.79
2022-11-30T21:04:58.675Z,18.77
2022-11-30T21:08:00.846Z,18.77
2022-11-30T21:11:08.168Z,18.76
2022-11-30T21:14:10.868Z,18.76
2022-11-30T21:17:12.896Z,18.78
2022-11-30T21:20:15.151Z,18.74
2022-11-30T21:23:20.929Z,18.77
2022-11-30T21:26:31.232Z,18.80
2022-11-30T21:29:33.471Z,18.78
2022-11-30T21:32:35.513Z,18.77
2022-11-30T21:35:38.591Z,18.77
2022-11-30T21:38:40.827Z,18.76
2022-11-30T21:41:43.157Z,18.74
2022-11-30T21:44:45.186Z,18.76
2022-11-30T21:47:47.271Z,18.74
2022-11-30T21:50:49.239Z,18.73
2022-11-30T21:53:53.992Z,18.72
2022-11-30T21:56:56.113Z,18.71
2022-11-30T21:59:58.335Z,18.69
2022-11-30T22:03:00.421Z,18.69
2022-11-30T22:06:07.693Z,18.70
2022-11-30T22:09:15.799Z,18.67
2022-11-30T22:12:17.883Z,18.67
2022-11-30T22:15:19.943Z,18.66
2022-11-30T22:18:21.954Z,18.65
2022-11-30T22:21:26.691Z,18.74
2022-11-30T22:24:28.741Z,18.69
2022-11-30T22:27:30.748Z,18.67
2022-11-30T22:30:33.533Z,18.65
2022-11-30T22:33:37.295Z,18.64
2022-11-30T22:36:41.625Z,18.64
2022-11-30T22:39:43.883Z,18.66
2022-11-30T22:42:45.924Z,18.63
2022-11-30T22:45:47.913Z,18.64
2022-11-30T22:48:50.426Z,18.62
2022-11-30T22:51:52.467Z,18.61
2022-11-30T22:54:54.585Z,18.59
2022-11-30T22:57:56.726Z,18.59
2022-11-30T23:01:06.567Z,18.58
2022-11-30T23:04:12.164Z,18.58
2022-11-30T23:07:14.210Z,18.58
2022-11-30T23:10:18.086Z,18.57
2022-11-30T23:13:20.076Z,18.56
2022-11-30T23:16:22.367Z,18.56
2022-11-30T23:19:24.469Z,18.55
2022-11-30T23:22:26.479Z,18.55
2022-11-30T23:25:28.502Z,18.52
2022-11-30T23:28:30.512Z,18.54
2022-11-30T23:31:37.596Z,18.52
2022-11-30T23:34:39.727Z,18.52
2022-11-30T23:37:41.783Z,18.51
2022-11-30T23:40:43.874Z,18.47
2022-11-30T23:43:45.842Z,18.46
2022-11-30T23:46:48.104Z,18.48
2022-11-30T23:49:50.443Z,18.47
2022-11-30T23:52:52.775Z,18.46
2022-11-30T23:55:55.128Z,18.46
2022-11-30T23:58:57.166Z,18.43
